createdAt,value
2022-12-03T00:00:06.208Z,2.70
2022-12-03T00:02:37.564Z,3.00
2022-12-03T00:05:06.753Z,3.00
2022-12-03T00:07:35.254Z,3.40
2022-12-03T00:10:04.026Z,2.83
2022-12-03T00:12:32.506Z,3.25
2022-12-03T00:15:02.363Z,3.13
2022-12-03T00:17:31.723Z,3.33
2022-12-03T00:20:00.255Z,2.88
2022-12-03T00:22:28.807Z,3.40
2022-12-03T00:24:57.291Z,2.85
2022-12-03T00:27:25.757Z,3.03
2022-12-03T00:29:54.320Z,2.75
2022-12-03T00:32:24.148Z,2.95
2022-12-03T00:34:52.880Z,2.97
2022-12-03T00:37:21.585Z,2.97
2022-12-03T00:39:50.402Z,3.17
2022-12-03T00:42:18.842Z,2.95
2022-12-03T00:44:47.243Z,2.90
2022-12-03T00:47:15.683Z,2.95
2022-12-03T00:49:45.531Z,3.08
2022-12-03T00:52:13.997Z,2.95
2022-12-03T00:54:42.432Z,2.90
2022-12-03T00:57:10.994Z,3.03
2022-12-03T00:59:39.436Z,2.78
2022-12-03T01:02:08.084Z,3.10
2022-12-03T01:04:36.742Z,2.72
2022-12-03T01:07:06.596Z,2.40
2022-12-03T01:09:35.142Z,2.90
2022-12-03T01:12:03.624Z,3.15
2022-12-03T01:14:32.444Z,2.70
2022-12-03T01:17:00.948Z,2.83
2022-12-03T01:19:29.546Z,2.80
2022-12-03T01:21:58.000Z,3.00
2022-12-03T01:24:27.871Z,3.13
2022-12-03T01:26:57.507Z,2.95
2022-12-03T01:29:26.016Z,2.97
2022-12-03T01:32:12.158Z,3.08
2022-12-03T01:34:40.676Z,2.72
2022-12-03T01:37:09.187Z,2.70
2022-12-03T01:39:39.062Z,2.60
2022-12-03T01:42:10.618Z,2.90
2022-12-03T01:44:40.630Z,2.90
2022-12-03T01:47:15.167Z,3.20
2022-12-03T01:49:45.763Z,3.00
2022-12-03T01:52:16.683Z,2.95
2022-12-03T01:54:49.078Z,2.97
2022-12-03T01:57:23.668Z,3.20
2022-12-03T01:59:53.002Z,2.90
2022-12-03T02:02:24.892Z,3.00
2022-12-03T02:04:55.188Z,3.05
2022-12-03T02:07:26.962Z,2.67
2022-12-03T02:09:59.220Z,2.92
2022-12-03T02:12:31.466Z,2.63
2022-12-03T02:15:00.726Z,2.88
2022-12-03T02:17:29.415Z,3.20
2022-12-03T02:19:58.462Z,3.03
2022-12-03T02:22:35.367Z,2.75
2022-12-03T02:25:16.458Z,3.10
2022-12-03T02:27:46.283Z,2.90
2022-12-03T02:30:18.659Z,2.67
2022-12-03T02:32:48.594Z,2.80
2022-12-03T02:35:20.514Z,2.90
2022-12-03T02:37:52.560Z,3.03
2022-12-03T02:40:25.363Z,2.88
2022-12-03T02:42:58.097Z,2.97
2022-12-03T02:45:29.837Z,2.80
2022-12-03T02:48:01.883Z,2.83
2022-12-03T02:50:34.830Z,2.80
2022-12-03T02:53:05.202Z,2.42
2022-12-03T02:55:37.280Z,2.70
2022-12-03T02:58:07.176Z,2.78
2022-12-03T03:00:36.783Z,2.70
2022-12-03T03:03:08.614Z,2.70
2022-12-03T03:05:39.653Z,3.03
2022-12-03T03:08:09.924Z,2.50
2022-12-03T03:10:41.735Z,2.63
2022-12-03T03:13:12.609Z,2.55
2022-12-03T03:15:42.695Z,2.63
2022-12-03T03:18:13.486Z,3.00
2022-12-03T03:20:42.709Z,2.90
2022-12-03T03:23:16.484Z,2.58
2022-12-03T03:25:49.462Z,2.78
2022-12-03T03:28:19.260Z,2.45
2022-12-03T03:30:48.206Z,2.90
2022-12-03T03:33:17.802Z,2.65
2022-12-03T03:35:48.118Z,2.78
2022-12-03T03:38:17.136Z,2.80
2022-12-03T03:40:47.899Z,2.38
2022-12-03T03:43:16.531Z,2.42
2022-12-03T03:45:45.525Z,2.60
2022-12-03T03:48:14.962Z,2.40
2022-12-03T03:50:45.412Z,2.67
2022-12-03T03:53:14.925Z,2.53
2022-12-03T03:55:43.817Z,3.03
2022-12-03T03:58:14.018Z,2.70
2022-12-03T04:00:44.954Z,2.42
2022-12-03T04:03:14.039Z,2.30
2022-12-03T04:05:42.673Z,2.70
2022-12-03T04:08:11.166Z,2.50
2022-12-03T04:10:57.513Z,2.38
2022-12-03T04:13:27.460Z,2.55
2022-12-03T04:15:56.044Z,2.72
2022-12-03T04:18:41.781Z,2.50
2022-12-03T04:21:27.829Z,2.70
2022-12-03T04:23:56.450Z,2.30
2022-12-03T04:26:42.853Z,2.50
2022-12-03T04:29:13.217Z,2.53
2022-12-03T04:31:59.914Z,2.63
2022-12-03T04:34:46.034Z,2.67
2022-12-03T04:37:14.940Z,2.60
2022-12-03T04:39:43.442Z,2.47
2022-12-03T04:42:11.840Z,2.60
2022-12-03T04:44:41.651Z,2.38
2022-12-03T04:47:12.929Z,2.50
2022-12-03T04:49:43.122Z,2.38
2022-12-03T04:52:12.737Z,2.50
2022-12-03T04:54:42.165Z,2.33
2022-12-03T04:57:10.734Z,2.75
2022-12-03T04:59:40.887Z,2.53
2022-12-03T05:02:09.613Z,2.88
2022-12-03T05:04:38.342Z,2.55
2022-12-03T05:07:06.814Z,2.42
2022-12-03T05:09:35.225Z,2.65
2022-12-03T05:12:03.939Z,2.60
2022-12-03T05:14:32.578Z,2.33
2022-12-03T05:17:02.443Z,2.88
2022-12-03T05:19:44.934Z,2.78
2022-12-03T05:22:13.431Z,2.58
2022-12-03T05:24:41.863Z,2.70
2022-12-03T05:27:10.353Z,2.80
2022-12-03T05:29:38.794Z,2.50
2022-12-03T05:32:08.667Z,2.53
2022-12-03T05:34:37.091Z,2.83
2022-12-03T05:37:05.546Z,2.85
2022-12-03T05:39:34.114Z,2.53
2022-12-03T05:42:20.180Z,2.50
2022-12-03T05:44:48.781Z,2.45
2022-12-03T05:47:18.581Z,2.47
2022-12-03T05:49:47.197Z,2.85
2022-12-03T05:52:15.723Z,2.70
2022-12-03T05:54:44.187Z,2.78
2022-12-03T05:57:12.626Z,2.50
2022-12-03T05:59:41.132Z,2.60
2022-12-03T06:02:09.744Z,2.45
2022-12-03T06:04:39.687Z,2.70
2022-12-03T06:07:12.479Z,2.45
2022-12-03T06:09:42.546Z,2.47
2022-12-03T06:12:11.088Z,2.60
2022-12-03T06:14:39.581Z,2.70
2022-12-03T06:17:08.213Z,2.72
2022-12-03T06:19:36.688Z,2.58
2022-12-03T06:22:06.568Z,2.80
2022-12-03T06:24:35.027Z,2.60
2022-12-03T06:27:03.482Z,2.80
2022-12-03T06:29:32.115Z,2.67
2022-12-03T06:32:00.655Z,2.60
2022-12-03T06:34:29.138Z,2.80
2022-12-03T06:36:57.635Z,2.75
2022-12-03T06:39:27.889Z,2.70
2022-12-03T06:41:56.359Z,2.70
2022-12-03T06:44:24.878Z,2.42
2022-12-03T06:46:53.376Z,2.78
2022-12-03T06:49:21.896Z,2.72
2022-12-03T06:51:50.430Z,2.85
2022-12-03T06:54:18.887Z,2.58
2022-12-03T06:56:48.712Z,2.47
2022-12-03T06:59:17.172Z,2.47
2022-12-03T07:01:46.222Z,2.67
2022-12-03T07:04:14.784Z,2.60
2022-12-03T07:06:43.737Z,2.47
2022-12-03T07:09:12.215Z,2.42
2022-12-03T07:11:40.976Z,2.60
2022-12-03T07:14:12.028Z,2.72
2022-12-03T07:16:43.415Z,2.72
2022-12-03T07:19:12.467Z,2.65
2022-12-03T07:21:41.199Z,2.85
2022-12-03T07:24:09.953Z,3.17
2022-12-03T07:26:38.446Z,2.50
2022-12-03T07:29:06.910Z,3.15
2022-12-03T07:31:36.827Z,2.80
2022-12-03T07:34:05.535Z,2.72
2022-12-03T07:36:34.009Z,2.78
2022-12-03T07:39:02.501Z,2.50
2022-12-03T07:41:31.049Z,2.92
2022-12-03T07:43:59.584Z,2.63
2022-12-03T07:46:28.142Z,3.20
2022-12-03T07:48:58.133Z,2.95
2022-12-03T07:51:31.964Z,2.80
2022-12-03T07:54:00.940Z,2.80
2022-12-03T07:56:29.358Z,2.90
2022-12-03T07:58:57.892Z,3.08
2022-12-03T08:01:26.511Z,2.90
2022-12-03T08:03:55.085Z,2.65
2022-12-03T08:06:24.938Z,2.95
2022-12-03T08:08:53.490Z,2.90
2022-12-03T08:11:22.029Z,2.72
2022-12-03T08:13:50.523Z,2.80
2022-12-03T08:16:21.285Z,3.13
2022-12-03T08:18:51.659Z,2.58
2022-12-03T08:21:22.070Z,2.83
2022-12-03T08:23:51.860Z,2.90
2022-12-03T08:26:24.035Z,2.97
2022-12-03T08:28:53.050Z,2.65
2022-12-03T08:31:27.930Z,3.00
2022-12-03T08:34:12.586Z,2.92
2022-12-03T08:36:41.891Z,2.88
2022-12-03T08:39:30.914Z,3.00
2022-12-03T08:42:26.900Z,3.00
2022-12-03T08:44:56.218Z,3.17
2022-12-03T08:47:25.658Z,2.90
2022-12-03T08:49:57.961Z,3.17
2022-12-03T08:52:32.644Z,3.40
2022-12-03T08:55:29.894Z,2.80
2022-12-03T08:57:59.224Z,2.50
2022-12-03T09:00:27.758Z,3.10
2022-12-03T09:03:01.056Z,3.17
2022-12-03T09:05:33.365Z,3.20
2022-12-03T09:08:01.818Z,3.00
2022-12-03T09:10:31.779Z,3.10
2022-12-03T09:13:00.218Z,3.40
2022-12-03T09:15:29.148Z,2.63
2022-12-03T09:17:57.562Z,2.83
2022-12-03T09:20:25.994Z,3.08
2022-12-03T09:22:54.435Z,3.88
2022-12-03T09:25:22.842Z,3.00
2022-12-03T09:27:52.708Z,3.10
2022-12-03T09:30:21.260Z,3.13
2022-12-03T09:32:49.683Z,3.58
2022-12-03T09:35:18.335Z,4.93
2022-12-03T09:37:46.804Z,5.60
2022-12-03T09:40:15.938Z,6.20
2022-12-03T09:42:44.452Z,6.20
2022-12-03T09:45:16.110Z,5.95
2022-12-03T09:47:48.667Z,6.00
2022-12-03T09:50:20.524Z,6.00
2022-12-03T09:52:50.932Z,5.25
2022-12-03T09:55:23.121Z,5.85
2022-12-03T09:57:52.637Z,5.38
2022-12-03T10:00:26.113Z,5.70
2022-12-03T10:02:58.631Z,5.85
2022-12-03T10:05:27.143Z,4.90
2022-12-03T10:08:04.057Z,4.60
2022-12-03T10:10:32.863Z,4.00
2022-12-03T10:13:01.712Z,4.57
2022-12-03T10:15:32.671Z,4.10
2022-12-03T10:18:08.100Z,4.10
2022-12-03T10:20:36.617Z,4.45
2022-12-03T10:23:05.058Z,4.47
2022-12-03T10:25:33.468Z,4.68
2022-12-03T10:28:03.823Z,5.43
2022-12-03T10:30:33.763Z,4.75
2022-12-03T10:33:18.477Z,4.88
2022-12-03T10:35:47.783Z,5.10
2022-12-03T10:38:22.189Z,4.57
2022-12-03T10:40:50.847Z,4.60
2022-12-03T10:43:24.419Z,4.10
2022-12-03T10:46:12.644Z,4.20
2022-12-03T10:48:41.175Z,4.63
2022-12-03T10:51:20.700Z,4.15
2022-12-03T10:53:50.383Z,4.50
2022-12-03T10:56:25.118Z,4.40
2022-12-03T10:58:54.465Z,4.30
2022-12-03T11:01:27.363Z,3.95
2022-12-03T11:04:04.590Z,4.53
2022-12-03T11:06:33.453Z,4.78
2022-12-03T11:09:08.855Z,3.97
2022-12-03T11:11:37.854Z,4.10
2022-12-03T11:14:06.737Z,4.43
2022-12-03T11:17:08.724Z,4.00
2022-12-03T11:19:50.086Z,4.90
2022-12-03T11:22:27.699Z,4.10
2022-12-03T11:25:32.321Z,4.05
2022-12-03T11:30:59.001Z,3.53
2022-12-03T11:33:33.587Z,3.90
2022-12-03T11:36:17.558Z,3.80
2022-12-03T11:39:04.020Z,4.10
2022-12-03T11:41:34.720Z,4.07
2022-12-03T11:44:31.526Z,3.58
2022-12-03T11:47:02.347Z,3.75
2022-12-03T11:49:55.333Z,3.95
2022-12-03T11:52:30.483Z,3.88
2022-12-03T11:55:02.804Z,4.15
2022-12-03T11:57:37.963Z,3.65
2022-12-03T12:00:18.234Z,4.18
2022-12-03T12:02:47.280Z,4.07
2022-12-03T12:05:22.311Z,3.80
2022-12-03T12:07:53.173Z,4.00
2022-12-03T12:10:39.180Z,3.90
2022-12-03T12:13:08.284Z,4.68
2022-12-03T12:15:46.003Z,4.25
2022-12-03T12:18:40.822Z,3.97
2022-12-03T12:21:41.788Z,3.88
2022-12-03T12:24:35.922Z,3.70
2022-12-03T12:27:07.477Z,4.10
2022-12-03T12:29:37.747Z,4.18
2022-12-03T12:32:15.107Z,4.40
2022-12-03T12:34:46.100Z,4.30
2022-12-03T12:37:20.003Z,4.03
2022-12-03T12:39:49.943Z,3.85
2022-12-03T12:42:43.705Z,3.83
2022-12-03T12:45:16.150Z,3.97
2022-12-03T12:47:50.250Z,4.00
2022-12-03T12:52:51.444Z,3.22
2022-12-03T12:55:23.579Z,4.22
2022-12-03T12:57:52.695Z,4.07
2022-12-03T13:00:23.541Z,4.10
2022-12-03T13:02:57.389Z,4.00
2022-12-03T13:05:27.667Z,3.60
2022-12-03T13:07:56.435Z,3.58
2022-12-03T13:10:34.765Z,3.78
2022-12-03T13:13:43.360Z,3.80
2022-12-03T13:16:17.570Z,3.53
2022-12-03T13:18:48.044Z,3.53
2022-12-03T13:21:37.940Z,3.50
2022-12-03T13:24:27.754Z,3.92
2022-12-03T13:26:58.204Z,3.75
2022-12-03T13:29:28.097Z,3.67
2022-12-03T13:31:58.429Z,4.22
2022-12-03T13:34:29.476Z,3.40
2022-12-03T13:36:58.786Z,3.95
2022-12-03T13:39:31.606Z,3.90
2022-12-03T13:42:33.296Z,4.13
2022-12-03T13:45:03.186Z,3.83
2022-12-03T13:47:33.012Z,3.72
2022-12-03T13:50:04.391Z,4.22
2022-12-03T13:52:35.702Z,3.90
2022-12-03T13:55:05.219Z,3.88
2022-12-03T13:57:34.968Z,3.28
2022-12-03T14:00:03.617Z,3.40
2022-12-03T14:02:41.268Z,3.63
2022-12-03T14:05:10.611Z,4.00
2022-12-03T14:07:39.941Z,3.75
2022-12-03T14:10:09.983Z,3.63
2022-12-03T14:12:39.951Z,4.03
2022-12-03T14:15:10.670Z,3.70
2022-12-03T14:17:39.220Z,3.97
2022-12-03T14:20:09.121Z,4.03
2022-12-03T14:22:38.092Z,3.88
2022-12-03T14:25:07.728Z,3.92
2022-12-03T14:27:36.399Z,3.67
2022-12-03T14:30:07.466Z,3.78
2022-12-03T14:32:35.993Z,3.78
2022-12-03T14:35:09.752Z,3.60
2022-12-03T14:37:38.808Z,4.40
2022-12-03T14:40:09.027Z,4.00
2022-12-03T14:42:37.856Z,4.15
2022-12-03T14:45:09.059Z,3.92
2022-12-03T14:47:37.549Z,3.67
2022-12-03T14:50:08.013Z,3.75
2022-12-03T14:52:36.470Z,4.00
2022-12-03T14:55:05.905Z,4.50
2022-12-03T14:57:34.395Z,3.25
2022-12-03T15:00:02.910Z,3.58
2022-12-03T15:02:32.722Z,4.05
2022-12-03T15:05:01.313Z,4.38
2022-12-03T15:07:31.816Z,3.70
2022-12-03T15:10:00.456Z,3.97
2022-12-03T15:12:28.894Z,3.75
2022-12-03T15:14:57.296Z,3.72
2022-12-03T15:17:31.531Z,3.95
2022-12-03T15:20:01.888Z,3.65
2022-12-03T15:22:30.311Z,3.60
2022-12-03T15:24:58.698Z,3.65
2022-12-03T15:27:27.209Z,3.78
2022-12-03T15:29:55.926Z,3.55
2022-12-03T15:32:24.771Z,4.00
2022-12-03T15:34:53.364Z,4.15
2022-12-03T15:37:27.467Z,4.07
2022-12-03T15:42:33.622Z,4.38
2022-12-03T15:45:04.627Z,3.58
2022-12-03T15:47:35.997Z,3.60
2022-12-03T15:50:05.451Z,4.25
2022-12-03T15:52:35.252Z,4.18
2022-12-03T15:55:03.747Z,3.80
2022-12-03T15:57:32.263Z,3.47
2022-12-03T16:00:00.740Z,3.50
2022-12-03T16:02:33.695Z,3.72
2022-12-03T16:05:02.521Z,3.90
2022-12-03T16:07:30.986Z,3.90
2022-12-03T16:10:01.872Z,3.50
2022-12-03T16:12:30.324Z,3.97
2022-12-03T16:14:58.790Z,4.22
2022-12-03T16:17:27.458Z,3.50
2022-12-03T16:19:56.290Z,3.60
2022-12-03T16:22:25.076Z,4.20
2022-12-03T16:24:53.572Z,4.07
2022-12-03T16:27:25.839Z,3.50
2022-12-03T16:29:56.207Z,3.88
2022-12-03T16:32:25.108Z,3.65
2022-12-03T16:34:53.566Z,3.92
2022-12-03T16:37:22.284Z,3.58
2022-12-03T16:39:52.671Z,3.88
2022-12-03T16:42:21.279Z,3.63
2022-12-03T16:45:11.667Z,3.55
2022-12-03T16:47:40.243Z,3.90
2022-12-03T16:50:15.889Z,3.50
2022-12-03T16:52:48.683Z,4.40
2022-12-03T16:55:17.225Z,4.05
2022-12-03T16:57:45.870Z,4.68
2022-12-03T17:00:17.311Z,3.83
2022-12-03T17:02:45.854Z,4.25
2022-12-03T17:05:14.658Z,3.60
2022-12-03T17:07:43.161Z,4.63
2022-12-03T17:10:12.554Z,3.65
2022-12-03T17:13:08.081Z,4.68
2022-12-03T17:15:31.279Z,4.18
2022-12-03T17:18:00.251Z,4.30
2022-12-03T17:20:28.784Z,4.25
2022-12-03T17:22:58.210Z,4.25
2022-12-03T17:25:27.475Z,4.38
2022-12-03T17:27:56.026Z,3.97
2022-12-03T17:30:24.516Z,4.00
2022-12-03T17:32:54.757Z,4.53
2022-12-03T17:35:23.199Z,4.00
2022-12-03T17:37:51.696Z,3.90
2022-12-03T17:40:20.142Z,4.18
2022-12-03T17:42:48.603Z,4.00
2022-12-03T17:45:17.455Z,4.40
2022-12-03T17:47:46.057Z,4.40
2022-12-03T17:50:16.016Z,4.28
2022-12-03T17:52:44.425Z,3.88
2022-12-03T17:55:18.064Z,4.05
2022-12-03T17:57:52.381Z,4.38
2022-12-03T18:00:21.100Z,3.85
2022-12-03T18:02:49.646Z,3.50
2022-12-03T18:05:19.522Z,3.88
2022-12-03T18:07:48.341Z,3.78
2022-12-03T18:10:17.101Z,3.58
2022-12-03T18:12:45.754Z,3.83
2022-12-03T18:15:14.177Z,3.80
2022-12-03T18:17:42.602Z,3.97
2022-12-03T18:20:11.318Z,3.58
2022-12-03T18:22:41.240Z,3.42
2022-12-03T18:25:10.985Z,3.53
2022-12-03T18:27:39.475Z,3.78
2022-12-03T18:30:08.957Z,3.67
2022-12-03T18:32:37.611Z,3.80
2022-12-03T18:35:06.362Z,3.45
2022-12-03T18:37:35.017Z,3.53
2022-12-03T18:40:12.676Z,3.50
2022-12-03T18:42:41.835Z,3.25
2022-12-03T18:45:12.844Z,3.80
2022-12-03T18:47:41.784Z,3.47
2022-12-03T18:50:11.505Z,3.40
2022-12-03T18:52:40.479Z,3.22
2022-12-03T18:55:15.984Z,3.83
2022-12-03T18:57:44.592Z,3.90
2022-12-03T19:00:14.503Z,3.75
2022-12-03T19:03:02.354Z,4.10
2022-12-03T19:05:33.304Z,3.83
2022-12-03T19:08:02.055Z,3.75
2022-12-03T19:10:31.960Z,3.53
2022-12-03T19:13:00.757Z,4.13
2022-12-03T19:15:29.225Z,3.60
2022-12-03T19:17:58.123Z,3.88
2022-12-03T19:20:26.603Z,4.03
2022-12-03T19:22:55.215Z,3.97
2022-12-03T19:25:23.710Z,3.55
2022-12-03T19:27:55.048Z,4.13
2022-12-03T19:30:23.750Z,3.42
2022-12-03T19:32:52.249Z,3.25
2022-12-03T19:35:21.369Z,3.92
2022-12-03T19:37:50.170Z,3.65
2022-12-03T19:40:18.732Z,3.95
2022-12-03T19:42:47.295Z,4.93
2022-12-03T19:45:17.400Z,3.70
2022-12-03T19:47:45.839Z,3.63
2022-12-03T19:50:21.063Z,3.92
2022-12-03T19:52:51.817Z,3.90
2022-12-03T19:55:20.535Z,3.97
2022-12-03T19:57:49.412Z,4.13
2022-12-03T20:00:19.703Z,4.18
2022-12-03T20:02:50.132Z,3.85
2022-12-03T20:05:18.854Z,4.00
2022-12-03T20:07:47.610Z,3.70
2022-12-03T20:10:16.462Z,3.72
2022-12-03T20:12:45.032Z,4.07
2022-12-03T20:15:14.055Z,3.97
2022-12-03T20:17:44.007Z,3.70
2022-12-03T20:20:13.057Z,3.95
2022-12-03T20:22:41.633Z,3.88
2022-12-03T20:25:11.287Z,4.45
2022-12-03T20:27:39.884Z,3.72
2022-12-03T20:30:09.465Z,4.25
2022-12-03T20:32:43.565Z,4.10
2022-12-03T20:35:15.050Z,3.90
2022-12-03T20:37:43.483Z,3.80
2022-12-03T20:40:12.547Z,4.40
2022-12-03T20:42:41.488Z,4.40
2022-12-03T20:45:11.117Z,4.18
2022-12-03T20:47:39.706Z,4.30
2022-12-03T20:50:08.972Z,4.38
2022-12-03T20:52:38.833Z,3.95
2022-12-03T20:55:07.854Z,4.03
2022-12-03T20:57:36.256Z,4.40
2022-12-03T21:00:06.152Z,4.65
2022-12-03T21:02:35.063Z,4.30
2022-12-03T21:05:03.711Z,4.30
2022-12-03T21:07:32.237Z,4.28
2022-12-03T21:10:02.079Z,4.05
2022-12-03T21:12:30.522Z,4.00
2022-12-03T21:14:59.020Z,4.22
2022-12-03T21:17:27.454Z,3.88
2022-12-03T21:19:56.417Z,4.28
2022-12-03T21:22:25.069Z,3.83
2022-12-03T21:24:53.633Z,4.10
2022-12-03T21:27:23.411Z,4.53
2022-12-03T21:29:52.866Z,4.63
2022-12-03T21:32:21.782Z,4.60
2022-12-03T21:34:50.337Z,4.10
2022-12-03T21:37:18.856Z,4.10
2022-12-03T21:39:47.285Z,4.30
2022-12-03T21:42:34.288Z,4.07
2022-12-03T21:45:05.992Z,4.15
2022-12-03T21:47:37.249Z,3.97
2022-12-03T21:50:08.294Z,4.32
2022-12-03T21:52:37.030Z,4.15
2022-12-03T21:55:06.243Z,4.88
2022-12-03T21:57:36.849Z,4.32
2022-12-03T22:00:10.113Z,4.45
2022-12-03T22:02:41.820Z,4.25
2022-12-03T22:05:11.626Z,4.65
2022-12-03T22:07:40.760Z,4.30
2022-12-03T22:10:11.937Z,4.63
2022-12-03T22:12:41.889Z,4.55
2022-12-03T22:15:18.462Z,4.18
2022-12-03T22:17:48.146Z,4.57
2022-12-03T22:20:17.024Z,4.05
2022-12-03T22:22:45.720Z,4.32
2022-12-03T22:25:14.196Z,4.47
2022-12-03T22:27:42.693Z,4.38
2022-12-03T22:30:12.875Z,3.92
2022-12-03T22:32:41.279Z,4.10
2022-12-03T22:35:10.278Z,4.00
2022-12-03T22:37:38.892Z,4.35
2022-12-03T22:40:08.340Z,4.80
2022-12-03T22:42:36.854Z,4.60
2022-12-03T22:45:06.317Z,4.20
2022-12-03T22:47:36.167Z,4.40
2022-12-03T22:50:05.035Z,4.70
2022-12-03T22:52:33.543Z,4.57
2022-12-03T22:55:01.991Z,4.57
2022-12-03T22:57:30.429Z,4.60
2022-12-03T22:59:58.968Z,4.72
2022-12-03T23:02:27.647Z,4.38
2022-12-03T23:04:57.667Z,4.40
2022-12-03T23:07:26.156Z,4.57
2022-12-03T23:09:55.018Z,4.88
2022-12-03T23:12:23.826Z,4.70
2022-12-03T23:14:54.165Z,4.65
2022-12-03T23:17:22.592Z,4.63
2022-12-03T23:19:51.091Z,4.22
2022-12-03T23:22:20.930Z,4.47
2022-12-03T23:24:49.432Z,4.13
2022-12-03T23:27:17.901Z,4.55
2022-12-03T23:29:46.391Z,4.22
2022-12-03T23:32:14.936Z,4.35
2022-12-03T23:34:43.624Z,4.30
2022-12-03T23:37:12.250Z,4.10
2022-12-03T23:39:42.137Z,4.47
2022-12-03T23:42:10.587Z,4.03
2022-12-03T23:44:39.047Z,4.47
2022-12-03T23:47:07.588Z,4.75
2022-12-03T23:49:36.116Z,4.18
2022-12-03T23:52:04.688Z,4.13
2022-12-03T23:54:33.447Z,3.97
2022-12-03T23:57:03.284Z,4.05
2022-12-03T23:59:32.017Z,4.05
